sensor_id;sensor_type;location;lat;lon;timestamp;pressure;altitude;pressure_sealevel;temperature;humidity
44765;BME280;30484;52.382;5.260;2023-06-10T00:00:51;101636.50;;;23.02;100.00
44765;BME280;30484;52.382;5.260;2023-06-10T00:03:20;101634.69;;;22.81;100.00
44765;BME280;30484;52.382;5.260;2023-06-10T00:05:50;101638.41;;;22.80;100.00
44765;BME280;30484;52.382;5.260;2023-06-10T00:08:20;101631.56;;;22.76;100.00
44765;BME280;30484;52.382;5.260;2023-06-10T00:10:49;101647.84;;;22.66;100.00
44765;BME280;30484;52.382;5.260;2023-06-10T00:13:18;101639.06;;;22.93;100.00
44765;BME280;30484;52.382;5.260;2023-06-10T00:15:49;101638.31;;;22.82;100.00
44765;BME280;30484;52.382;5.260;2023-06-10T00:18:18;101642.06;;;22.90;100.00
44765;BME280;30484;52.382;5.260;2023-06-10T00:20:49;101643.50;;;22.95;100.00
44765;BME280;30484;52.382;5.260;2023-06-10T00:23:21;101645.88;;;22.78;100.00
44765;BME280;30484;52.382;5.260;2023-06-10T00:25:51;101644.16;;;22.77;100.00
44765;BME280;30484;52.382;5.260;2023-06-10T00:28:20;101641.78;;;22.63;100.00
44765;BME280;30484;52.382;5.260;2023-06-10T00:30:50;101648.56;;;22.68;100.00
44765;BME280;30484;52.382;5.260;2023-06-10T00:33:19;101647.03;;;22.45;100.00
44765;BME280;30484;52.382;5.260;2023-06-10T00:35:48;101650.00;;;22.72;100.00
44765;BME280;30484;52.382;5.260;2023-06-10T00:38:16;101656.59;;;22.70;100.00
44765;BME280;30484;52.382;5.260;2023-06-10T00:40:47;101655.06;;;22.46;100.00
44765;BME280;30484;52.382;5.260;2023-06-10T00:43:17;101658.03;;;22.43;100.00
44765;BME280;30484;52.382;5.260;2023-06-10T00:45:45;101649.69;;;22.66;100.00
44765;BME280;30484;52.382;5.260;2023-06-10T00:48:14;101648.69;;;22.67;100.00
44765;BME280;30484;52.382;5.260;2023-06-10T00:50:43;101659.69;;;22.55;100.00
44765;BME280;30484;52.382;5.260;2023-06-10T00:53:12;101661.63;;;22.44;100.00
44765;BME280;30484;52.382;5.260;2023-06-10T00:55:41;101650.81;;;22.53;100.00
44765;BME280;30484;52.382;5.260;2023-06-10T00:58:11;101653.97;;;22.58;100.00
44765;BME280;30484;52.382;5.260;2023-06-10T01:00:40;101655.44;;;22.41;100.00
44765;BME280;30484;52.382;5.260;2023-06-10T01:03:09;101657.50;;;22.49;100.00
44765;BME280;30484;52.382;5.260;2023-06-10T01:05:39;101652.22;;;22.48;100.00
44765;BME280;30484;52.382;5.260;2023-06-10T01:08:16;101659.44;;;22.16;100.00
44765;BME280;30484;52.382;5.260;2023-06-10T01:10:53;101657.56;;;21.96;100.00
44765;BME280;30484;52.382;5.260;2023-06-10T01:13:26;101657.50;;;22.28;100.00
44765;BME280;30484;52.382;5.260;2023-06-10T01:15:58;101662.59;;;22.21;100.00
44765;BME280;30484;52.382;5.260;2023-06-10T01:18:30;101670.06;;;22.19;100.00
44765;BME280;30484;52.382;5.260;2023-06-10T01:20:59;101673.44;;;22.12;100.00
44765;BME280;30484;52.382;5.260;2023-06-10T01:23:29;101667.94;;;22.02;100.00
44765;BME280;30484;52.382;5.260;2023-06-10T01:26:02;101669.78;;;22.22;100.00
44765;BME280;30484;52.382;5.260;2023-06-10T01:28:38;101666.22;;;22.01;100.00
44765;BME280;30484;52.382;5.260;2023-06-10T01:31:16;101667.41;;;22.08;100.00
44765;BME280;30484;52.382;5.260;2023-06-10T01:33:52;101663.53;;;21.89;100.00
44765;BME280;30484;52.382;5.260;2023-06-10T01:36:22;101663.00;;;21.96;100.00
44765;BME280;30484;52.382;5.260;2023-06-10T01:38:54;101668.72;;;21.93;100.00
44765;BME280;30484;52.382;5.260;2023-06-10T01:41:24;101662.63;;;21.79;100.00
44765;BME280;30484;52.382;5.260;2023-06-10T01:43:54;101667.22;;;21.67;100.00
44765;BME280;30484;52.382;5.260;2023-06-10T01:46:23;101662.69;;;21.57;100.00
44765;BME280;30484;52.382;5.260;2023-06-10T01:48:52;101667.44;;;21.76;100.00
44765;BME280;30484;52.382;5.260;2023-06-10T01:51:20;101663.59;;;21.78;100.00
44765;BME280;30484;52.382;5.260;2023-06-10T01:53:49;101666.91;;;21.61;100.00
44765;BME280;30484;52.382;5.260;2023-06-10T01:56:19;101663.38;;;21.70;100.00
44765;BME280;30484;52.382;5.260;2023-06-10T01:58:49;101666.66;;;21.41;100.00
44765;BME280;30484;52.382;5.260;2023-06-10T02:01:18;101667.03;;;21.59;100.00
44765;BME280;30484;52.382;5.260;2023-06-10T02:03:47;101662.69;;;21.57;100.00
44765;BME280;30484;52.382;5.260;2023-06-10T02:06:16;101667.25;;;21.56;100.00
44765;BME280;30484;52.382;5.260;2023-06-10T02:08:44;101677.19;;;21.34;100.00
44765;BME280;30484;52.382;5.260;2023-06-10T02:11:13;101674.72;;;21.31;100.00
44765;BME280;30484;52.382;5.260;2023-06-10T02:13:45;101674.56;;;21.55;100.00
44765;BME280;30484;52.382;5.260;2023-06-10T02:16:14;101671.59;;;21.36;100.00
44765;BME280;30484;52.382;5.260;2023-06-10T02:18:44;101672.19;;;21.51;100.00
44765;BME280;30484;52.382;5.260;2023-06-10T02:21:14;101673.09;;;21.40;100.00
44765;BME280;30484;52.382;5.260;2023-06-10T02:23:43;101669.03;;;21.34;100.00
44765;BME280;30484;52.382;5.260;2023-06-10T02:26:12;101683.28;;;21.15;100.00
44765;BME280;30484;52.382;5.260;2023-06-10T02:28:42;101671.78;;;21.23;100.00
44765;BME280;30484;52.382;5.260;2023-06-10T02:31:13;101685.13;;;21.15;100.00
44765;BME280;30484;52.382;5.260;2023-06-10T02:33:46;101685.22;;;21.25;100.00
44765;BME280;30484;52.382;5.260;2023-06-10T02:36:18;101678.38;;;21.09;100.00
44765;BME280;30484;52.382;5.260;2023-06-10T02:38:49;101671.94;;;20.99;100.00
44765;BME280;30484;52.382;5.260;2023-06-10T02:41:17;101683.03;;;20.96;100.00
44765;BME280;30484;52.382;5.260;2023-06-10T02:43:46;101671.06;;;21.10;100.00
44765;BME280;30484;52.382;5.260;2023-06-10T02:46:16;101688.00;;;20.79;100.00
44765;BME280;30484;52.382;5.260;2023-06-10T02:48:46;101685.63;;;21.09;100.00
44765;BME280;30484;52.382;5.260;2023-06-10T02:51:16;101685.50;;;21.10;100.00
44765;BME280;30484;52.382;5.260;2023-06-10T02:53:46;101685.75;;;20.96;100.00
44765;BME280;30484;52.382;5.260;2023-06-10T02:56:17;101685.63;;;20.97;100.00
44765;BME280;30484;52.382;5.260;2023-06-10T02:58:46;101679.75;;;20.81;100.00
44765;BME280;30484;52.382;5.260;2023-06-10T03:01:19;101687.88;;;20.81;100.00
44765;BME280;30484;52.382;5.260;2023-06-10T03:03:48;101686.75;;;20.83;100.00
44765;BME280;30484;52.382;5.260;2023-06-10T03:06:18;101687.38;;;20.87;100.00
44765;BME280;30484;52.382;5.260;2023-06-10T03:08:47;101689.09;;;20.99;100.00
44765;BME280;30484;52.382;5.260;2023-06-10T03:11:16;101685.63;;;20.75;100.00
44765;BME280;30484;52.382;5.260;2023-06-10T03:13:50;101682.31;;;20.71;100.00
44765;BME280;30484;52.382;5.260;2023-06-10T03:16:20;101696.88;;;20.81;100.00
44765;BME280;30484;52.382;5.260;2023-06-10T03:18:49;101692.19;;;20.72;100.00
44765;BME280;30484;52.382;5.260;2023-06-10T03:21:18;101697.72;;;20.71;100.00
44765;BME280;30484;52.382;5.260;2023-06-10T03:23:49;101694.75;;;20.62;100.00
44765;BME280;30484;52.382;5.260;2023-06-10T03:26:18;101691.66;;;20.56;100.00
44765;BME280;30484;52.382;5.260;2023-06-10T03:28:51;101700.41;;;20.59;100.00
44765;BME280;30484;52.382;5.260;2023-06-10T03:31:22;101703.28;;;20.80;100.00
44765;BME280;30484;52.382;5.260;2023-06-10T03:33:52;101701.53;;;20.57;100.00
44765;BME280;30484;52.382;5.260;2023-06-10T03:36:22;101693.63;;;20.65;100.00
44765;BME280;30484;52.382;5.260;2023-06-10T03:38:54;101701.53;;;20.57;100.00
44765;BME280;30484;52.382;5.260;2023-06-10T03:41:24;101706.97;;;20.57;100.00
44765;BME280;30484;52.382;5.260;2023-06-10T03:43:54;101711.44;;;20.69;100.00
44765;BME280;30484;52.382;5.260;2023-06-10T03:46:25;101698.88;;;20.68;100.00
44765;BME280;30484;52.382;5.260;2023-06-10T03:48:54;101706.56;;;20.50;100.00
44765;BME280;30484;52.382;5.260;2023-06-10T03:51:24;101703.75;;;20.51;100.00
44765;BME280;30484;52.382;5.260;2023-06-10T03:53:54;101701.28;;;20.60;100.00
44765;BME280;30484;52.382;5.260;2023-06-10T03:56:22;101713.81;;;20.74;100.00
44765;BME280;30484;52.382;5.260;2023-06-10T03:58:51;101715.34;;;20.42;100.00
44765;BME280;30484;52.382;5.260;2023-06-10T04:01:20;101715.25;;;20.66;100.00
44765;BME280;30484;52.382;5.260;2023-06-10T04:03:52;101712.84;;;20.50;100.00
44765;BME280;30484;52.382;5.260;2023-06-10T04:06:23;101715.44;;;20.52;100.00
44765;BME280;30484;52.382;5.260;2023-06-10T04:08:53;101718.69;;;20.57;100.00
44765;BME280;30484;52.382;5.260;2023-06-10T04:11:23;101710.06;;;20.16;100.00
44765;BME280;30484;52.382;5.260;2023-06-10T04:13:52;101712.84;;;20.50;100.00
44765;BME280;30484;52.382;5.260;2023-06-10T04:16:23;101717.69;;;20.58;100.00
44765;BME280;30484;52.382;5.260;2023-06-10T04:18:54;101717.63;;;20.71;100.00
44765;BME280;30484;52.382;5.260;2023-06-10T04:21:24;101706.19;;;20.55;100.00
44765;BME280;30484;52.382;5.260;2023-06-10T04:23:54;101717.06;;;20.55;100.00
44765;BME280;30484;52.382;5.260;2023-06-10T04:26:23;101724.22;;;20.44;100.00
44765;BME280;30484;52.382;5.260;2023-06-10T04:28:54;101727.44;;;20.49;100.00
44765;BME280;30484;52.382;5.260;2023-06-10T04:31:23;101726.19;;;20.65;100.00
44765;BME280;30484;52.382;5.260;2023-06-10T04:33:54;101728.97;;;20.76;100.00
44765;BME280;30484;52.382;5.260;2023-06-10T04:36:23;101726.41;;;20.39;100.00
44765;BME280;30484;52.382;5.260;2023-06-10T04:38:51;101732.34;;;20.44;100.00
44765;BME280;30484;52.382;5.260;2023-06-10T04:41:20;101741.31;;;20.80;100.00
44765;BME280;30484;52.382;5.260;2023-06-10T04:43:49;101731.81;;;20.75;100.00
44765;BME280;30484;52.382;5.260;2023-06-10T04:46:18;101728.84;;;20.78;100.00
44765;BME280;30484;52.382;5.260;2023-06-10T04:48:47;101737.78;;;20.44;100.00
44765;BME280;30484;52.382;5.260;2023-06-10T04:51:17;101735.72;;;20.48;100.00
44765;BME280;30484;52.382;5.260;2023-06-10T04:53:46;101734.19;;;20.79;100.00
44765;BME280;30484;52.382;5.260;2023-06-10T04:56:14;101734.16;;;21.02;100.00
44765;BME280;30484;52.382;5.260;2023-06-10T04:58:43;101734.91;;;20.70;100.00
44765;BME280;30484;52.382;5.260;2023-06-10T05:01:12;101739.47;;;20.81;100.00
44765;BME280;30484;52.382;5.260;2023-06-10T05:03:41;101741.31;;;20.80;100.00
44765;BME280;30484;52.382;5.260;2023-06-10T05:06:09;101744.28;;;21.11;100.00
44765;BME280;30484;52.382;5.260;2023-06-10T05:08:40;101738.84;;;21.34;100.00
44765;BME280;30484;52.382;5.260;2023-06-10T05:13:51;101747.50;;;21.16;100.00
44765;BME280;30484;52.382;5.260;2023-06-10T05:16:23;101739.09;;;21.31;100.00
44765;BME280;30484;52.382;5.260;2023-06-10T05:18:59;101748.94;;;21.43;100.00
44765;BME280;30484;52.382;5.260;2023-06-10T05:21:35;101744.81;;;21.05;100.00
44765;BME280;30484;52.382;5.260;2023-06-10T05:24:07;101749.09;;;21.30;100.00
44765;BME280;30484;52.382;5.260;2023-06-10T05:26:39;101737.97;;;21.33;100.00
44765;BME280;30484;52.382;5.260;2023-06-10T05:29:08;101748.91;;;21.77;100.00
44765;BME280;30484;52.382;5.260;2023-06-10T05:31:43;101731.91;;;21.52;100.00
44765;BME280;30484;52.382;5.260;2023-06-10T05:34:14;101740.75;;;22.10;100.00
44765;BME280;30484;52.382;5.260;2023-06-10T05:36:45;101757.75;;;22.02;100.00
44765;BME280;30484;52.382;5.260;2023-06-10T05:39:19;101748.34;;;21.95;100.00
44765;BME280;30484;52.382;5.260;2023-06-10T05:41:54;101744.25;;;22.21;100.00
44765;BME280;30484;52.382;5.260;2023-06-10T05:44:48;101734.53;;;22.40;100.00
44765;BME280;30484;52.382;5.260;2023-06-10T05:47:29;101743.13;;;22.56;100.00
44765;BME280;30484;52.382;5.260;2023-06-10T05:50:03;101749.78;;;22.31;100.00
44765;BME280;30484;52.382;5.260;2023-06-10T05:52:34;101755.19;;;22.64;100.00
44765;BME280;30484;52.382;5.260;2023-06-10T05:55:06;101754.16;;;22.34;100.00
44765;BME280;30484;52.382;5.260;2023-06-10T05:57:37;101740.94;;;22.81;100.00
44765;BME280;30484;52.382;5.260;2023-06-10T06:00:12;101747.84;;;22.85;100.00
44765;BME280;30484;52.382;5.260;2023-06-10T06:02:47;101751.09;;;22.69;100.00
44765;BME280;30484;52.382;5.260;2023-06-10T06:05:18;101746.16;;;23.15;100.00
44765;BME280;30484;52.382;5.260;2023-06-10T06:07:50;101752.22;;;22.98;100.00
44765;BME280;30484;52.382;5.260;2023-06-10T06:10:21;101748.63;;;23.28;100.00
44765;BME280;30484;52.382;5.260;2023-06-10T06:12:50;101750.91;;;23.13;100.00
44765;BME280;30484;52.382;5.260;2023-06-10T06:15:22;101741.97;;;23.11;100.00
44765;BME280;30484;52.382;5.260;2023-06-10T06:17:53;101749.56;;;23.48;100.00
44765;BME280;30484;52.382;5.260;2023-06-10T06:20:26;101744.13;;;23.58;100.00
44765;BME280;30484;52.382;5.260;2023-06-10T06:23:05;101747.63;;;23.19;100.00
44765;BME280;30484;52.382;5.260;2023-06-10T06:25:40;101751.28;;;23.49;100.00
44765;BME280;30484;52.382;5.260;2023-06-10T06:28:11;101755.25;;;23.35;100.00
44765;BME280;30484;52.382;5.260;2023-06-10T06:30:47;101745.59;;;23.82;100.00
44765;BME280;30484;52.382;5.260;2023-06-10T06:33:17;101743.84;;;23.71;100.00
44765;BME280;30484;52.382;5.260;2023-06-10T06:35:48;101739.91;;;23.94;100.00
44765;BME280;30484;52.382;5.260;2023-06-10T06:38:18;101745.63;;;24.01;100.00
44765;BME280;30484;52.382;5.260;2023-06-10T06:40:52;101745.47;;;24.03;100.00
44765;BME280;30484;52.382;5.260;2023-06-10T06:43:30;101750.53;;;24.17;100.00
44765;BME280;30484;52.382;5.260;2023-06-10T06:46:03;101751.09;;;24.21;100.00
44765;BME280;30484;52.382;5.260;2023-06-10T06:48:33;101756.00;;;24.17;100.00
44765;BME280;30484;52.382;5.260;2023-06-10T06:51:06;101741.59;;;24.25;100.00
44765;BME280;30484;52.382;5.260;2023-06-10T06:53:40;101741.91;;;24.12;100.00
44765;BME280;30484;52.382;5.260;2023-06-10T06:56:14;101752.28;;;24.85;100.00
44765;BME280;30484;52.382;5.260;2023-06-10T06:58:50;101746.31;;;24.33;100.00
44765;BME280;30484;52.382;5.260;2023-06-10T07:01:22;101746.41;;;24.90;100.00
44765;BME280;30484;52.382;5.260;2023-06-10T07:03:57;101742.50;;;25.20;100.00
44765;BME280;30484;52.382;5.260;2023-06-10T07:06:27;101741.50;;;25.49;100.00
44765;BME280;30484;52.382;5.260;2023-06-10T07:08:57;101748.97;;;25.19;100.00
44765;BME280;30484;52.382;5.260;2023-06-10T07:11:28;101746.06;;;25.03;100.00
44765;BME280;30484;52.382;5.260;2023-06-10T07:13:59;101745.09;;;25.22;100.00
44765;BME280;30484;52.382;5.260;2023-06-10T07:16:31;101752.25;;;25.60;100.00
44765;BME280;30484;52.382;5.260;2023-06-10T07:19:03;101751.63;;;25.01;100.00
44765;BME280;30484;52.382;5.260;2023-06-10T07:21:35;101759.25;;;25.45;100.00
44765;BME280;30484;52.382;5.260;2023-06-10T07:24:12;101752.19;;;25.88;100.00
44765;BME280;30484;52.382;5.260;2023-06-10T07:26:44;101747.81;;;25.95;100.00
44765;BME280;30484;52.382;5.260;2023-06-10T07:29:14;101762.16;;;26.07;100.00
44765;BME280;30484;52.382;5.260;2023-06-10T07:31:48;101754.47;;;26.11;100.00
44765;BME280;30484;52.382;5.260;2023-06-10T07:34:25;101749.28;;;26.44;100.00
44765;BME280;30484;52.382;5.260;2023-06-10T07:37:09;101748.88;;;26.12;100.00
44765;BME280;30484;52.382;5.260;2023-06-10T07:39:40;101752.91;;;26.26;100.00
44765;BME280;30484;52.382;5.260;2023-06-10T07:42:28;101739.88;;;26.46;100.00
44765;BME280;30484;52.382;5.260;2023-06-10T07:45:01;101752.91;;;26.70;100.00
44765;BME280;30484;52.382;5.260;2023-06-10T07:47:38;101753.34;;;26.84;100.00
44765;BME280;30484;52.382;5.260;2023-06-10T07:50:10;101754.97;;;26.68;100.00
44765;BME280;30484;52.382;5.260;2023-06-10T07:53:09;101752.72;;;26.46;100.00
44765;BME280;30484;52.382;5.260;2023-06-10T07:56:03;101757.59;;;26.60;100.00
44765;BME280;30484;52.382;5.260;2023-06-10T07:59:02;101751.94;;;27.14;100.00
44765;BME280;30484;52.382;5.260;2023-06-10T08:01:38;101760.81;;;27.34;100.00
44765;BME280;30484;52.382;5.260;2023-06-10T08:04:09;101761.84;;;27.42;100.00
44765;BME280;30484;52.382;5.260;2023-06-10T08:06:40;101767.72;;;27.47;100.00
44765;BME280;30484;52.382;5.260;2023-06-10T08:09:10;101763.63;;;27.59;100.00
44765;BME280;30484;52.382;5.260;2023-06-10T08:11:49;101766.06;;;27.70;100.00
44765;BME280;30484;52.382;5.260;2023-06-10T08:14:24;101757.41;;;27.49;100.00
44765;BME280;30484;52.382;5.260;2023-06-10T08:16:56;101764.09;;;28.14;100.00
44765;BME280;30484;52.382;5.260;2023-06-10T08:19:28;101762.84;;;27.92;100.00
44765;BME280;30484;52.382;5.260;2023-06-10T08:21:59;101768.91;;;28.36;100.00
44765;BME280;30484;52.382;5.260;2023-06-10T08:24:33;101770.13;;;28.42;100.00
44765;BME280;30484;52.382;5.260;2023-06-10T08:27:17;101775.94;;;28.22;100.00
44765;BME280;30484;52.382;5.260;2023-06-10T08:29:53;101770.28;;;28.40;100.00
44765;BME280;30484;52.382;5.260;2023-06-10T08:32:25;101765.47;;;28.10;100.00
44765;BME280;30484;52.382;5.260;2023-06-10T08:34:57;101773.88;;;28.57;100.00
44765;BME280;30484;52.382;5.260;2023-06-10T08:37:29;101773.94;;;29.14;100.00
44765;BME280;30484;52.382;5.260;2023-06-10T08:40:01;101769.38;;;28.98;100.00
44765;BME280;30484;52.382;5.260;2023-06-10T08:42:39;101765.25;;;28.85;100.00
44765;BME280;30484;52.382;5.260;2023-06-10T08:45:24;101765.88;;;29.12;100.00
44765;BME280;30484;52.382;5.260;2023-06-10T08:47:56;101766.75;;;29.52;100.00
44765;BME280;30484;52.382;5.260;2023-06-10T08:50:39;101764.00;;;29.84;100.00
44765;BME280;30484;52.382;5.260;2023-06-10T08:53:19;101778.44;;;30.32;100.00
44765;BME280;30484;52.382;5.260;2023-06-10T08:56:03;101769.22;;;30.25;100.00
44765;BME280;30484;52.382;5.260;2023-06-10T08:58:35;101767.53;;;30.39;100.00
44765;BME280;30484;52.382;5.260;2023-06-10T09:01:11;101767.91;;;30.59;100.00
44765;BME280;30484;52.382;5.260;2023-06-10T09:03:44;101767.22;;;30.57;100.00
44765;BME280;30484;52.382;5.260;2023-06-10T09:06:15;101771.38;;;30.53;100.00
44765;BME280;30484;52.382;5.260;2023-06-10T09:08:45;101768.13;;;31.02;100.00
44765;BME280;30484;52.382;5.260;2023-06-10T09:11:15;101771.47;;;31.27;100.00
44765;BME280;30484;52.382;5.260;2023-06-10T09:13:50;101777.88;;;31.49;100.00
44765;BME280;30484;52.382;5.260;2023-06-10T09:16:24;101771.72;;;31.47;100.00
44765;BME280;30484;52.382;5.260;2023-06-10T09:18:56;101782.75;;;31.47;100.00
44765;BME280;30484;52.382;5.260;2023-06-10T09:21:31;101762.69;;;31.75;100.00
44765;BME280;30484;52.382;5.260;2023-06-10T09:24:15;101759.78;;;31.98;100.00
44765;BME280;30484;52.382;5.260;2023-06-10T09:26:45;101756.66;;;31.87;100.00
44765;BME280;30484;52.382;5.260;2023-06-10T09:29:17;101770.03;;;32.05;99.71
44765;BME280;30484;52.382;5.260;2023-06-10T09:31:53;101760.91;;;31.67;98.40
44765;BME280;30484;52.382;5.260;2023-06-10T09:34:26;101769.31;;;32.17;100.00
44765;BME280;30484;52.382;5.260;2023-06-10T09:36:57;101768.94;;;32.49;100.00
44765;BME280;30484;52.382;5.260;2023-06-10T09:39:30;101766.31;;;32.41;91.96
44765;BME280;30484;52.382;5.260;2023-06-10T09:42:17;101766.75;;;32.66;94.37
44765;BME280;30484;52.382;5.260;2023-06-10T09:44:53;101752.91;;;32.66;92.29
44765;BME280;30484;52.382;5.260;2023-06-10T09:47:35;101767.16;;;32.91;96.48
44765;BME280;30484;52.382;5.260;2023-06-10T09:50:08;101774.06;;;33.09;92.18
44765;BME280;30484;52.382;5.260;2023-06-10T09:52:40;101761.38;;;32.86;89.50
44765;BME280;30484;52.382;5.260;2023-06-10T09:55:10;101765.13;;;33.13;87.02
44765;BME280;30484;52.382;5.260;2023-06-10T09:57:41;101761.00;;;33.31;86.54
44765;BME280;30484;52.382;5.260;2023-06-10T10:00:21;101769.63;;;33.63;84.56
44765;BME280;30484;52.382;5.260;2023-06-10T10:02:56;101763.94;;;33.78;81.17
44765;BME280;30484;52.382;5.260;2023-06-10T10:05:28;101764.44;;;33.46;85.08
44765;BME280;30484;52.382;5.260;2023-06-10T10:07:58;101761.84;;;33.31;82.85
44765;BME280;30484;52.382;5.260;2023-06-10T10:10:29;101770.25;;;33.65;81.21
44765;BME280;30484;52.382;5.260;2023-06-10T10:13:01;101765.25;;;33.88;78.09
44765;BME280;30484;52.382;5.260;2023-06-10T10:15:33;101757.16;;;34.00;76.74
44765;BME280;30484;52.382;5.260;2023-06-10T10:18:16;101755.94;;;33.48;75.06
44765;BME280;30484;52.382;5.260;2023-06-10T10:20:53;101762.50;;;33.95;75.41
44765;BME280;30484;52.382;5.260;2023-06-10T10:23:31;101756.09;;;34.15;72.59
44765;BME280;30484;52.382;5.260;2023-06-10T10:26:06;101757.34;;;33.85;71.15
44765;BME280;30484;52.382;5.260;2023-06-10T10:28:48;101749.25;;;33.84;69.83
44765;BME280;30484;52.382;5.260;2023-06-10T10:31:20;101753.16;;;34.36;69.00
44765;BME280;30484;52.382;5.260;2023-06-10T10:33:58;101752.06;;;34.44;67.85
44765;BME280;30484;52.382;5.260;2023-06-10T10:36:33;101744.56;;;34.24;67.59
44765;BME280;30484;52.382;5.260;2023-06-10T10:39:06;101753.13;;;34.56;70.62
44765;BME280;30484;52.382;5.260;2023-06-10T10:41:43;101749.28;;;34.37;68.42
44765;BME280;30484;52.382;5.260;2023-06-10T10:44:16;101745.66;;;34.64;64.80
44765;BME280;30484;52.382;5.260;2023-06-10T10:46:52;101747.16;;;34.53;65.46
44765;BME280;30484;52.382;5.260;2023-06-10T10:49:27;101740.94;;;34.71;64.64
44765;BME280;30484;52.382;5.260;2023-06-10T10:51:58;101731.75;;;34.90;63.22
44765;BME280;30484;52.382;5.260;2023-06-10T10:54:35;101731.97;;;34.69;59.46
44765;BME280;30484;52.382;5.260;2023-06-10T10:57:13;101731.91;;;35.02;61.66
44765;BME280;30484;52.382;5.260;2023-06-10T10:59:55;101729.63;;;34.66;62.82
44765;BME280;30484;52.382;5.260;2023-06-10T11:02:43;101732.13;;;35.07;61.02
44765;BME280;30484;52.382;5.260;2023-06-10T11:05:30;101729.50;;;35.19;59.84
44765;BME280;30484;52.382;5.260;2023-06-10T11:08:00;101720.41;;;35.44;59.31
44765;BME280;30484;52.382;5.260;2023-06-10T11:10:33;101730.50;;;35.32;58.70
44765;BME280;30484;52.382;5.260;2023-06-10T11:13:13;101720.59;;;35.04;55.45
44765;BME280;30484;52.382;5.260;2023-06-10T11:15:45;101725.16;;;35.37;57.68
44765;BME280;30484;52.382;5.260;2023-06-10T11:18:20;101725.59;;;35.40;56.09
44765;BME280;30484;52.382;5.260;2023-06-10T11:21:01;101710.81;;;35.40;56.89
44765;BME280;30484;52.382;5.260;2023-06-10T11:23:41;101712.63;;;35.59;57.03
44765;BME280;30484;52.382;5.260;2023-06-10T11:29:29;101708.56;;;35.94;55.10
44765;BME280;30484;52.382;5.260;2023-06-10T11:32:05;101705.28;;;36.29;54.28
44765;BME280;30484;52.382;5.260;2023-06-10T11:34:40;101714.06;;;36.51;53.39
44765;BME280;30484;52.382;5.260;2023-06-10T11:37:12;101704.41;;;36.72;52.07
44765;BME280;30484;52.382;5.260;2023-06-10T11:39:43;101703.31;;;36.36;49.45
44765;BME280;30484;52.382;5.260;2023-06-10T11:42:16;101700.00;;;36.46;51.24
44765;BME280;30484;52.382;5.260;2023-06-10T11:44:51;101697.38;;;36.51;50.80
44765;BME280;30484;52.382;5.260;2023-06-10T11:47:22;101692.25;;;36.48;50.33
44765;BME280;30484;52.382;5.260;2023-06-10T11:49:57;101700.16;;;36.70;49.37
44765;BME280;30484;52.382;5.260;2023-06-10T11:52:31;101690.72;;;36.71;47.73
44765;BME280;30484;52.382;5.260;2023-06-10T11:55:07;101696.09;;;36.91;48.23
44765;BME280;30484;52.382;5.260;2023-06-10T11:57:37;101696.47;;;36.76;48.42
44765;BME280;30484;52.382;5.260;2023-06-10T12:00:09;101695.84;;;37.11;46.19
44765;BME280;30484;52.382;5.260;2023-06-10T12:02:43;101686.53;;;37.36;47.25
44765;BME280;30484;52.382;5.260;2023-06-10T12:05:14;101691.38;;;37.28;46.98
44765;BME280;30484;52.382;5.260;2023-06-10T12:08:10;101690.59;;;36.84;46.11
44765;BME280;30484;52.382;5.260;2023-06-10T12:10:43;101696.31;;;37.08;45.65
44765;BME280;30484;52.382;5.260;2023-06-10T12:13:13;101679.06;;;36.62;47.17
44765;BME280;30484;52.382;5.260;2023-06-10T12:15:43;101674.69;;;36.91;47.18
44765;BME280;30484;52.382;5.260;2023-06-10T12:18:18;101673.09;;;36.95;48.10
44765;BME280;30484;52.382;5.260;2023-06-10T12:20:49;101673.41;;;37.67;47.52
44765;BME280;30484;52.382;5.260;2023-06-10T12:23:24;101668.59;;;37.32;46.48
44765;BME280;30484;52.382;5.260;2023-06-10T12:25:56;101669.97;;;37.22;47.35
44765;BME280;30484;52.382;5.260;2023-06-10T12:28:28;101664.75;;;36.95;42.86
44765;BME280;30484;52.382;5.260;2023-06-10T12:31:07;101663.97;;;37.07;44.15
44765;BME280;30484;52.382;5.260;2023-06-10T12:33:38;101657.94;;;37.28;44.85
44765;BME280;30484;52.382;5.260;2023-06-10T12:36:18;101665.69;;;37.38;44.28
44765;BME280;30484;52.382;5.260;2023-06-10T12:38:52;101668.28;;;37.52;44.08
44765;BME280;30484;52.382;5.260;2023-06-10T12:41:24;101657.09;;;37.82;43.85
44765;BME280;30484;52.382;5.260;2023-06-10T12:43:57;101660.03;;;37.87;44.58
44765;BME280;30484;52.382;5.260;2023-06-10T12:46:38;101652.94;;;37.73;45.39
44765;BME280;30484;52.382;5.260;2023-06-10T12:49:19;101666.00;;;38.14;44.80
44765;BME280;30484;52.382;5.260;2023-06-10T12:51:50;101670.25;;;38.17;43.97
44765;BME280;30484;52.382;5.260;2023-06-10T12:54:22;101652.28;;;37.47;42.50
44765;BME280;30484;52.382;5.260;2023-06-10T12:56:53;101645.88;;;37.58;43.07
44765;BME280;30484;52.382;5.260;2023-06-10T12:59:23;101657.22;;;37.14;42.02
44765;BME280;30484;52.382;5.260;2023-06-10T13:01:53;101661.78;;;37.70;42.69
44765;BME280;30484;52.382;5.260;2023-06-10T13:04:22;101656.91;;;37.65;42.58
44765;BME280;30484;52.382;5.260;2023-06-10T13:06:51;101654.22;;;38.01;41.39
44765;BME280;30484;52.382;5.260;2023-06-10T13:09:23;101654.81;;;37.79;41.72
44765;BME280;30484;52.382;5.260;2023-06-10T13:11:53;101651.25;;;37.72;40.94
44765;BME280;30484;52.382;5.260;2023-06-10T13:14:23;101652.09;;;37.72;42.18
44765;BME280;30484;52.382;5.260;2023-06-10T13:16:54;101649.00;;;38.04;41.17